Time;durP1;ratioP1;P1;durP2;ratioP2;P2;SDS_P1;SDS_P2;PMS_P1;PMS_P2;Temp;Humidity;BMP_temperature;BMP_pressure;BME280_temperature;BME280_humidity;BME280_pressure;Samples;Min_cycle;Max_cycle;Signal;HPM_P1;HPM_P2
2021/09/05 00:01:44;;;;;;;6.40;5.77;;;16.20;99.90;;;;;;5044023;28;20178;-78
2021/09/05 00:04:10;;;;;;;6.93;6.33;;;16.30;99.90;;;;;;5045086;28;20522;-79
2021/09/05 00:06:36;;;;;;;6.93;6.27;;;16.20;99.90;;;;;;5043620;28;20220;-78
2021/09/05 00:09:02;;;;;;;8.63;6.83;;;16.20;99.90;;;;;;5043253;28;20533;-77
2021/09/05 00:11:28;;;;;;;7.20;6.33;;;16.10;99.90;;;;;;5040731;28;20541;-78
2021/09/05 00:13:54;;;;;;;6.73;6.13;;;16.20;99.90;;;;;;5022353;28;20289;-77
2021/09/05 00:16:19;;;;;;;7.20;6.50;;;16.10;99.90;;;;;;5026880;28;20173;-79
2021/09/05 00:18:45;;;;;;;8.10;6.27;;;16.10;99.90;;;;;;5044442;28;20256;-78
2021/09/05 00:21:11;;;;;;;7.93;7.20;;;16.10;99.90;;;;;;5043942;28;20187;-79
2021/09/05 00:23:37;;;;;;;8.33;6.57;;;16.10;99.90;;;;;;5043404;28;20214;-79
2021/09/05 00:26:03;;;;;;;6.70;6.10;;;16.10;99.90;;;;;;5043213;28;20181;-78
2021/09/05 00:28:28;;;;;;;8.03;5.97;;;16.10;99.90;;;;;;5039299;28;20166;-78
2021/09/05 00:30:54;;;;;;;7.27;6.57;;;16.00;99.90;;;;;;5041153;28;20214;-78
2021/09/05 00:33:20;;;;;;;7.70;6.40;;;16.00;99.90;;;;;;5039197;28;20204;-77
2021/09/05 00:35:46;;;;;;;7.50;6.20;;;16.00;99.90;;;;;;5041227;28;20174;-78
2021/09/05 00:38:11;;;;;;;8.50;6.43;;;15.90;99.90;;;;;;5024073;28;20178;-78
2021/09/05 00:40:37;;;;;;;8.40;5.90;;;15.90;99.90;;;;;;5040933;28;20266;-78
2021/09/05 00:43:03;;;;;;;8.97;6.50;;;15.90;99.90;;;;;;5025569;28;20184;-79
2021/09/05 00:45:28;;;;;;;7.90;7.10;;;15.90;99.90;;;;;;5025868;28;20174;-79
2021/09/05 00:47:54;;;;;;;11.03;6.57;;;15.80;99.90;;;;;;5040907;28;20166;-78
2021/09/05 00:50:20;;;;;;;7.67;6.83;;;15.80;99.90;;;;;;5041511;28;20225;-78
2021/09/05 00:52:45;;;;;;;9.37;6.90;;;15.80;99.90;;;;;;5039676;28;20584;-78
2021/09/05 00:55:11;;;;;;;7.20;6.50;;;15.80;99.90;;;;;;5021763;28;20191;-78
2021/09/05 00:57:38;;;;;;;7.23;6.53;;;15.80;99.90;;;;;;5039038;28;20183;-79
2021/09/05 01:00:04;;;;;;;7.33;6.67;;;15.70;99.90;;;;;;5039894;28;20189;-79
2021/09/05 01:02:30;;;;;;;7.60;6.30;;;15.70;99.90;;;;;;5022040;28;20173;-77
2021/09/05 01:04:55;;;;;;;6.57;5.87;;;15.70;99.90;;;;;;5038390;28;20203;-77
2021/09/05 01:07:22;;;;;;;15.00;7.50;;;15.60;99.90;;;;;;5041152;28;20170;-79
2021/09/05 01:09:48;;;;;;;7.13;6.17;;;15.60;99.90;;;;;;5023894;28;20183;-79
2021/09/05 01:12:14;;;;;;;7.23;6.33;;;15.50;99.90;;;;;;5039366;28;20198;-79
2021/09/05 01:14:39;;;;;;;8.73;6.67;;;15.60;99.90;;;;;;5038557;28;20195;-78
2021/09/05 01:17:05;;;;;;;8.07;6.80;;;15.60;99.90;;;;;;5022086;28;20676;-78
2021/09/05 01:19:31;;;;;;;10.67;6.67;;;15.50;99.90;;;;;;5021636;28;20179;-79
2021/09/05 01:21:56;;;;;;;6.93;6.30;;;15.50;99.90;;;;;;5042556;28;20174;-78
2021/09/05 01:24:22;;;;;;;9.27;6.50;;;15.50;99.90;;;;;;5042633;28;20289;-79
2021/09/05 01:26:51;;;;;;;7.43;6.00;;;15.40;99.90;;;;;;5021601;28;20592;-79
2021/09/05 01:29:18;;;;;;;7.23;6.53;;;15.50;99.90;;;;;;5023409;28;20175;-79
2021/09/05 01:31:53;;;;;;;7.57;6.77;;;15.40;99.90;;;;;;5038552;28;20181;-78
2021/09/05 01:34:20;;;;;;;6.80;6.10;;;15.40;99.90;;;;;;5019883;28;20683;-78
2021/09/05 01:36:48;;;;;;;9.47;6.47;;;15.50;99.90;;;;;;5039276;28;20761;-79
2021/09/05 01:39:15;;;;;;;7.23;6.53;;;15.40;99.90;;;;;;5041997;28;20181;-79
2021/09/05 01:41:42;;;;;;;6.90;6.30;;;15.40;99.90;;;;;;5041540;28;20202;-79
2021/09/05 01:44:14;;;;;;;7.17;6.50;;;15.30;99.90;;;;;;5040293;28;20709;-79
2021/09/05 01:46:40;;;;;;;7.27;6.20;;;15.20;99.90;;;;;;5040512;28;20539;-80
2021/09/05 01:49:06;;;;;;;7.77;6.23;;;15.10;99.90;;;;;;5041454;28;20178;-78
2021/09/05 01:51:33;;;;;;;8.20;6.60;;;15.10;99.90;;;;;;5040580;28;20238;-78
2021/09/05 01:53:59;;;;;;;7.47;6.87;;;15.10;99.90;;;;;;5019377;28;20206;-78
2021/09/05 01:56:29;;;;;;;7.93;7.03;;;15.10;99.90;;;;;;5019399;28;20185;-78
2021/09/05 01:58:56;;;;;;;6.80;6.20;;;15.20;99.90;;;;;;5036552;28;20206;-78
2021/09/05 02:01:26;;;;;;;9.30;6.67;;;15.20;99.90;;;;;;5039727;28;20198;-78
2021/09/05 02:03:51;;;;;;;7.83;6.33;;;15.20;99.90;;;;;;5038959;28;20190;-78
2021/09/05 02:06:17;;;;;;;6.90;6.10;;;15.20;99.90;;;;;;5037871;28;20186;-78
2021/09/05 02:08:43;;;;;;;7.30;6.60;;;15.20;99.90;;;;;;5035614;28;20253;-77
2021/09/05 02:11:08;;;;;;;8.87;6.57;;;15.20;99.90;;;;;;5038178;28;20185;-77
2021/09/05 02:13:34;;;;;;;6.60;6.00;;;15.20;99.90;;;;;;5036693;28;20289;-79
2021/09/05 02:16:01;;;;;;;6.63;5.97;;;15.10;99.90;;;;;;5023081;28;20255;-79
2021/09/05 02:18:26;;;;;;;6.33;5.80;;;15.10;99.90;;;;;;5041536;28;20178;-79
2021/09/05 02:20:52;;;;;;;6.77;6.17;;;15.00;99.90;;;;;;5022318;28;20198;-79
2021/09/05 02:23:18;;;;;;;6.80;6.10;;;15.00;99.90;;;;;;5040015;28;20657;-79
2021/09/05 02:25:43;;;;;;;6.60;6.00;;;15.00;99.90;;;;;;5037604;28;20186;-79
2021/09/05 02:28:09;;;;;;;6.47;5.83;;;15.00;99.90;;;;;;5040564;28;20196;-79
2021/09/05 02:30:35;;;;;;;6.93;5.47;;;14.90;99.90;;;;;;5041856;28;20676;-79
2021/09/05 02:33:04;;;;;;;7.03;6.33;;;15.00;99.90;;;;;;5003459;28;20855;-77
2021/09/05 02:35:30;;;;;;;7.87;6.53;;;15.00;99.90;;;;;;5035857;28;20520;-77
2021/09/05 02:37:56;;;;;;;6.90;6.20;;;14.90;99.90;;;;;;5017056;28;20228;-77
2021/09/05 02:40:22;;;;;;;6.50;6.00;;;14.90;99.90;;;;;;5033792;28;20202;-78
2021/09/05 02:42:47;;;;;;;7.37;6.13;;;14.90;99.90;;;;;;5016423;28;20568;-77
2021/09/05 02:45:13;;;;;;;7.10;6.50;;;14.90;99.90;;;;;;5017104;28;20261;-78
2021/09/05 02:47:39;;;;;;;6.90;6.30;;;14.80;99.90;;;;;;5017804;28;20173;-77
2021/09/05 02:50:05;;;;;;;6.80;6.10;;;14.90;99.90;;;;;;5037117;28;20178;-78
2021/09/05 02:52:31;;;;;;;6.93;6.23;;;14.90;99.90;;;;;;5044020;28;20178;-79
2021/09/05 02:54:57;;;;;;;7.27;6.43;;;14.80;99.90;;;;;;5021951;28;20190;-79
2021/09/05 02:57:23;;;;;;;6.50;5.90;;;14.80;99.90;;;;;;5037512;28;20198;-79
2021/09/05 02:59:48;;;;;;;6.63;6.13;;;14.80;99.90;;;;;;5018289;28;20198;-77
2021/09/05 03:02:23;;;;;;;7.07;6.30;;;14.80;99.90;;;;;;5017795;28;20261;-76
2021/09/05 03:04:49;;;;;;;7.37;6.67;;;14.80;99.90;;;;;;5019687;28;20187;-79
2021/09/05 03:07:14;;;;;;;6.80;6.20;;;14.70;99.90;;;;;;5018458;28;20174;-78
2021/09/05 03:09:40;;;;;;;6.50;6.00;;;14.70;99.90;;;;;;5022409;28;20181;-78
2021/09/05 03:12:06;;;;;;;7.07;6.43;;;14.60;99.90;;;;;;5038026;28;20166;-78
2021/09/05 03:14:32;;;;;;;7.10;6.43;;;14.60;99.90;;;;;;5034800;28;20190;-78
2021/09/05 03:16:57;;;;;;;9.60;6.63;;;14.60;99.90;;;;;;5021417;28;20178;-78
2021/09/05 03:19:24;;;;;;;6.50;5.90;;;14.60;99.90;;;;;;5035225;28;20163;-78
2021/09/05 03:21:49;;;;;;;7.27;6.57;;;14.60;99.90;;;;;;5016804;28;20193;-79
2021/09/05 03:24:15;;;;;;;6.93;6.30;;;14.60;99.90;;;;;;5020009;28;20217;-78
2021/09/05 03:26:41;;;;;;;7.43;6.30;;;14.60;99.90;;;;;;5042716;28;20201;-79
2021/09/05 03:29:07;;;;;;;11.83;7.27;;;14.60;99.90;;;;;;5042099;28;20198;-79
2021/09/05 03:31:33;;;;;;;7.13;6.43;;;14.50;99.90;;;;;;5042441;28;20171;-79
2021/09/05 03:33:59;;;;;;;6.77;6.17;;;14.50;99.90;;;;;;5042768;28;20198;-79
2021/09/05 03:36:24;;;;;;;7.47;6.63;;;14.50;99.90;;;;;;5041608;28;20261;-79
2021/09/05 03:38:50;;;;;;;6.30;5.60;;;14.50;99.90;;;;;;5035951;28;20633;-77
2021/09/05 03:41:16;;;;;;;7.73;6.23;;;14.50;99.90;;;;;;5035552;28;20274;-77
2021/09/05 03:43:41;;;;;;;7.00;6.37;;;14.40;99.90;;;;;;5035208;28;20201;-78
2021/09/05 03:46:07;;;;;;;6.77;6.17;;;14.40;99.90;;;;;;5036341;28;20178;-78
2021/09/05 03:48:33;;;;;;;8.37;6.50;;;14.40;99.90;;;;;;5036933;28;20186;-78
2021/09/05 03:50:59;;;;;;;7.37;6.67;;;14.40;99.90;;;;;;5038608;28;20179;-78
2021/09/05 03:53:26;;;;;;;6.50;5.90;;;14.40;99.90;;;;;;5039508;28;20661;-79
2021/09/05 03:55:52;;;;;;;8.07;6.70;;;14.40;99.90;;;;;;5021768;28;20175;-80
2021/09/05 03:58:18;;;;;;;9.53;6.80;;;14.30;99.90;;;;;;5022631;28;20277;-78
2021/09/05 04:00:44;;;;;;;7.27;6.57;;;14.30;99.90;;;;;;5038896;28;20673;-78
2021/09/05 04:03:10;;;;;;;7.43;6.73;;;14.30;99.90;;;;;;5033724;28;20244;-78
2021/09/05 04:05:37;;;;;;;7.20;6.60;;;14.30;99.90;;;;;;5037736;28;20178;-79
2021/09/05 04:10:33;;;;;;;7.80;7.10;;;14.30;99.90;;;;;;5038559;28;20174;-78
2021/09/05 04:12:58;;;;;;;7.60;6.83;;;14.30;99.90;;;;;;5018179;28;20265;-79
2021/09/05 04:15:24;;;;;;;7.30;6.60;;;14.20;99.90;;;;;;5017968;28;20340;-78
2021/09/05 04:17:50;;;;;;;7.90;6.47;;;14.20;99.90;;;;;;5038365;28;20171;-79
2021/09/05 04:20:17;;;;;;;6.93;6.23;;;14.20;99.90;;;;;;5019733;28;20186;-78
2021/09/05 04:22:43;;;;;;;6.77;6.17;;;14.00;99.90;;;;;;5035205;28;20186;-78
2021/09/05 04:25:09;;;;;;;10.03;6.87;;;14.00;99.90;;;;;;5018520;22;20985;-75
2021/09/05 04:27:35;;;;;;;7.27;6.67;;;14.10;99.90;;;;;;5014284;28;20171;-72
2021/09/05 04:30:01;;;;;;;7.20;6.50;;;14.10;99.90;;;;;;5013364;28;20185;-73
2021/09/05 04:32:26;;;;;;;7.60;6.90;;;14.00;99.90;;;;;;5014632;28;20540;-73
2021/09/05 04:34:52;;;;;;;6.73;6.10;;;14.00;99.90;;;;;;5006382;28;20199;-73
2021/09/05 04:37:19;;;;;;;6.97;6.27;;;14.00;99.90;;;;;;5012870;28;20171;-73
2021/09/05 04:39:45;;;;;;;7.20;6.07;;;14.00;99.90;;;;;;5013132;28;20171;-73
2021/09/05 04:42:11;;;;;;;6.80;6.20;;;14.00;99.90;;;;;;5013096;28;20182;-73
2021/09/05 04:44:37;;;;;;;7.13;6.40;;;14.10;99.90;;;;;;5013094;28;20187;-73
2021/09/05 04:47:03;;;;;;;6.43;5.93;;;14.00;99.90;;;;;;5014261;28;20167;-74
2021/09/05 04:49:29;;;;;;;9.17;6.67;;;14.00;99.90;;;;;;5014078;28;20174;-73
2021/09/05 04:51:55;;;;;;;7.17;6.50;;;13.90;99.90;;;;;;5013065;28;20171;-73
2021/09/05 04:54:20;;;;;;;6.00;5.60;;;13.90;99.90;;;;;;5008564;28;20193;-73
2021/09/05 04:56:46;;;;;;;8.43;7.20;;;13.80;99.90;;;;;;5000525;28;20175;-74
2021/09/05 04:59:12;;;;;;;7.03;6.50;;;13.70;99.90;;;;;;5013102;28;20649;-72
2021/09/05 05:01:39;;;;;;;7.90;6.53;;;13.60;99.90;;;;;;5013877;28;20570;-72
2021/09/05 05:04:04;;;;;;;7.17;6.57;;;13.70;99.90;;;;;;5000299;28;20191;-72
2021/09/05 05:06:30;;;;;;;7.43;6.53;;;13.70;99.90;;;;;;5014007;28;20170;-73
2021/09/05 05:08:56;;;;;;;7.37;6.03;;;13.80;99.90;;;;;;5012742;28;20195;-72
2021/09/05 05:11:22;;;;;;;8.80;6.07;;;13.80;99.90;;;;;;5012509;28;20233;-73
2021/09/05 05:13:47;;;;;;;7.40;6.63;;;13.80;99.90;;;;;;5013811;28;20199;-72
2021/09/05 05:16:13;;;;;;;9.67;6.27;;;13.90;99.90;;;;;;5009680;28;20599;-73
2021/09/05 05:18:41;;;;;;;7.17;6.50;;;13.90;99.90;;;;;;5013346;28;20255;-72
2021/09/05 05:21:07;;;;;;;7.47;6.70;;;13.80;99.90;;;;;;5014062;28;20592;-72
2021/09/05 05:23:33;;;;;;;7.50;6.80;;;13.90;99.90;;;;;;5008502;28;20620;-73
2021/09/05 05:25:58;;;;;;;10.50;6.40;;;13.90;99.90;;;;;;5004411;28;20232;-72
2021/09/05 05:28:24;;;;;;;7.20;6.43;;;13.90;99.90;;;;;;5013606;28;20228;-72
2021/09/05 05:30:50;;;;;;;8.13;6.27;;;13.90;99.90;;;;;;5013590;28;20249;-72
2021/09/05 05:33:16;;;;;;;7.73;6.97;;;14.00;99.90;;;;;;5000949;28;20180;-73
2021/09/05 05:35:41;;;;;;;7.67;6.43;;;14.00;99.90;;;;;;5006819;28;20190;-73
2021/09/05 05:38:07;;;;;;;7.27;6.57;;;14.10;99.90;;;;;;4992823;28;20176;-73
2021/09/05 05:40:33;;;;;;;7.93;7.23;;;14.10;99.90;;;;;;4993262;28;20191;-73
2021/09/05 05:43:02;;;;;;;7.57;6.50;;;14.10;99.90;;;;;;4991842;28;20729;-73
2021/09/05 05:45:28;;;;;;;6.83;6.23;;;14.10;99.90;;;;;;4993863;28;20781;-72
2021/09/05 05:47:54;;;;;;;7.90;7.07;;;14.10;99.90;;;;;;5012319;28;20552;-71
2021/09/05 05:50:20;;;;;;;7.90;6.53;;;14.10;99.90;;;;;;5013312;28;20543;-73
2021/09/05 05:52:46;;;;;;;7.33;6.63;;;14.10;99.90;;;;;;5001645;28;20167;-73
2021/09/05 05:55:12;;;;;;;6.90;6.33;;;14.20;99.90;;;;;;5013782;28;20788;-73
2021/09/05 05:57:37;;;;;;;6.67;6.07;;;14.20;99.90;;;;;;5013294;28;20195;-73
2021/09/05 06:00:07;;;;;;;8.20;6.60;;;14.20;99.90;;;;;;5013893;28;20209;-72
2021/09/05 06:02:33;;;;;;;7.13;6.43;;;14.20;99.90;;;;;;5000672;28;20174;-74
2021/09/05 06:04:58;;;;;;;7.17;6.57;;;14.10;99.90;;;;;;4998135;28;20191;-72
2021/09/05 06:07:25;;;;;;;7.33;6.73;;;14.10;99.90;;;;;;4997326;28;20171;-73
2021/09/05 06:09:51;;;;;;;7.37;6.27;;;14.20;99.90;;;;;;4998017;28;20555;-73
2021/09/05 06:12:16;;;;;;;6.97;6.27;;;14.30;99.90;;;;;;4995038;28;20183;-74
2021/09/05 06:14:42;;;;;;;7.17;6.33;;;14.20;99.90;;;;;;5001930;28;20195;-74
2021/09/05 06:17:08;;;;;;;6.63;6.10;;;14.10;99.90;;;;;;4998957;28;20222;-73
2021/09/05 06:19:33;;;;;;;6.70;6.10;;;14.10;99.90;;;;;;5000241;28;20211;-73
2021/09/05 06:21:59;;;;;;;7.00;6.40;;;14.00;99.90;;;;;;5004738;28;20175;-72
2021/09/05 06:24:24;;;;;;;7.33;6.63;;;14.10;99.90;;;;;;5016772;28;20248;-72
2021/09/05 06:26:50;;;;;;;8.37;6.30;;;14.30;99.90;;;;;;5016888;28;20254;-72
2021/09/05 06:29:16;;;;;;;7.90;6.43;;;14.40;99.90;;;;;;5016937;28;20179;-72
2021/09/05 06:31:41;;;;;;;6.93;6.33;;;14.40;99.90;;;;;;5003119;28;20685;-72
2021/09/05 06:34:07;;;;;;;7.03;6.43;;;14.50;99.90;;;;;;5017073;28;20234;-72
2021/09/05 06:36:33;;;;;;;6.43;5.83;;;14.60;99.90;;;;;;5007525;28;20219;-72
2021/09/05 06:38:59;;;;;;;6.80;5.83;;;14.70;99.90;;;;;;5008166;28;20183;-73
2021/09/05 06:41:24;;;;;;;7.90;6.53;;;14.80;99.90;;;;;;4997727;28;20343;-73
2021/09/05 06:43:50;;;;;;;6.47;5.97;;;14.80;99.90;;;;;;5000246;28;20196;-73
2021/09/05 06:46:15;;;;;;;6.77;6.17;;;14.80;99.90;;;;;;4998309;28;20187;-74
2021/09/05 06:48:42;;;;;;;6.97;6.37;;;14.90;99.90;;;;;;4999390;28;20199;-73
2021/09/05 06:51:07;;;;;;;6.80;6.20;;;15.00;99.90;;;;;;4996120;28;20263;-73
2021/09/05 06:53:33;;;;;;;8.37;6.57;;;15.10;99.90;;;;;;4985238;28;20290;-73
2021/09/05 06:55:59;;;;;;;6.90;6.20;;;15.20;99.90;;;;;;5003770;28;20179;-73
2021/09/05 06:58:24;;;;;;;6.90;6.30;;;15.20;99.90;;;;;;5016137;28;20265;-72
2021/09/05 07:00:52;;;;;;;8.70;6.53;;;15.30;99.90;;;;;;5000365;28;20737;-72
2021/09/05 07:03:17;;;;;;;8.00;7.17;;;15.30;99.90;;;;;;5003421;28;20225;-72
2021/09/05 07:05:43;;;;;;;7.30;6.70;;;15.40;99.90;;;;;;4999620;28;20670;-73
2021/09/05 07:08:09;;;;;;;7.90;7.10;;;15.30;99.90;;;;;;4982574;28;20276;-72
2021/09/05 07:10:36;;;;;;;7.83;7.13;;;15.30;99.90;;;;;;4975234;28;20269;-72
2021/09/05 07:13:02;;;;;;;7.90;6.73;;;15.40;99.90;;;;;;4976801;28;20568;-73
2021/09/05 07:15:27;;;;;;;8.60;7.80;;;15.50;99.90;;;;;;4994617;28;20261;-72
2021/09/05 07:17:53;;;;;;;7.43;6.73;;;15.60;99.90;;;;;;4993209;28;20207;-72
2021/09/05 07:20:19;;;;;;;8.47;7.60;;;15.60;99.90;;;;;;5008246;28;20207;-72
2021/09/05 07:22:45;;;;;;;10.87;8.70;;;15.60;99.90;;;;;;4999070;28;20643;-73
2021/09/05 07:25:11;;;;;;;9.63;8.80;;;15.70;99.90;;;;;;4997241;28;20683;-72
2021/09/05 07:27:37;;;;;;;9.73;8.83;;;15.90;99.90;;;;;;4977113;28;20212;-73
2021/09/05 07:30:04;;;;;;;9.20;8.07;;;16.00;99.90;;;;;;4976817;28;20174;-72
2021/09/05 07:32:30;;;;;;;8.30;7.60;;;16.10;99.90;;;;;;5003091;28;20185;-72
2021/09/05 07:34:56;;;;;;;8.80;8.07;;;16.20;99.90;;;;;;5000132;28;20216;-72
2021/09/05 07:37:21;;;;;;;8.47;7.67;;;16.30;99.90;;;;;;4997366;28;20321;-72
2021/09/05 07:39:47;;;;;;;7.93;7.23;;;16.30;99.90;;;;;;5006237;28;20172;-72
2021/09/05 07:42:13;;;;;;;8.70;7.90;;;16.30;99.90;;;;;;4993177;28;20168;-72
2021/09/05 07:44:39;;;;;;;10.30;9.30;;;16.40;99.90;;;;;;4997829;28;20289;-72
2021/09/05 07:47:04;;;;;;;10.40;9.40;;;16.50;99.90;;;;;;4979782;28;20181;-72
2021/09/05 07:49:30;;;;;;;9.00;8.17;;;16.60;99.90;;;;;;5009955;28;20172;-73
2021/09/05 07:51:56;;;;;;;11.07;8.37;;;16.70;99.90;;;;;;4994204;28;20320;-73
2021/09/05 07:54:21;;;;;;;9.63;8.80;;;16.80;99.90;;;;;;4989440;28;20230;-73
2021/09/05 07:56:47;;;;;;;11.30;8.70;;;16.80;99.90;;;;;;4979677;28;20186;-73
2021/09/05 07:59:13;;;;;;;8.97;8.07;;;16.90;99.90;;;;;;4976660;28;20184;-73
2021/09/05 08:01:38;;;;;;;9.50;8.27;;;16.90;99.90;;;;;;5015980;28;20211;-73
2021/09/05 08:04:04;;;;;;;10.13;9.10;;;16.90;99.90;;;;;;5014840;28;20197;-72
2021/09/05 08:06:30;;;;;;;9.47;8.50;;;17.00;99.90;;;;;;5015030;28;20261;-73
2021/09/05 08:08:57;;;;;;;9.90;8.90;;;17.20;99.90;;;;;;5015328;28;20513;-73
2021/09/05 08:11:23;;;;;;;9.57;8.57;;;17.20;99.90;;;;;;5013624;28;20178;-73
2021/09/05 08:13:49;;;;;;;9.23;8.33;;;17.20;99.90;;;;;;5001032;28;20211;-73
2021/09/05 08:16:15;;;;;;;10.77;8.63;;;17.30;99.90;;;;;;5001881;28;20178;-73
2021/09/05 08:18:41;;;;;;;9.77;8.20;;;17.30;99.90;;;;;;4978879;28;20179;-75
2021/09/05 08:21:08;;;;;;;9.30;8.53;;;17.40;99.90;;;;;;4974585;28;20682;-75
2021/09/05 08:23:35;;;;;;;9.30;8.50;;;17.50;99.90;;;;;;4979132;28;20739;-75
2021/09/05 08:26:01;;;;;;;9.67;8.83;;;17.70;99.90;;;;;;5013456;28;20198;-74
2021/09/05 08:28:27;;;;;;;9.20;8.20;;;17.80;99.90;;;;;;5014542;28;20250;-74
2021/09/05 08:30:53;;;;;;;9.30;8.30;;;17.70;99.90;;;;;;5009471;28;20207;-74
2021/09/05 08:33:19;;;;;;;8.63;7.83;;;17.80;99.90;;;;;;5007253;28;20643;-74
2021/09/05 08:35:46;;;;;;;9.07;8.20;;;17.90;99.90;;;;;;5014489;28;20189;-74
2021/09/05 08:38:12;;;;;;;8.73;8.03;;;18.00;99.90;;;;;;5014559;28;20183;-74
2021/09/05 08:40:46;;;;;;;8.73;7.90;;;18.10;99.90;;;;;;5014375;28;20195;-74
2021/09/05 08:43:13;;;;;;;8.77;7.90;;;18.20;99.90;;;;;;5002194;28;20316;-74
2021/09/05 08:45:39;;;;;;;8.97;8.07;;;18.10;99.90;;;;;;5014089;28;20249;-74
2021/09/05 08:48:07;;;;;;;8.97;8.17;;;18.20;99.90;;;;;;5010219;28;20177;-74
2021/09/05 08:50:34;;;;;;;8.50;7.80;;;18.30;99.90;;;;;;4984101;28;20172;-74
2021/09/05 08:53:00;;;;;;;8.30;7.60;;;18.30;99.90;;;;;;5014269;28;20167;-73
2021/09/05 08:55:27;;;;;;;8.07;7.40;;;18.30;99.90;;;;;;5014129;28;20195;-74
2021/09/05 08:57:53;;;;;;;8.23;7.43;;;18.40;99.90;;;;;;5013965;28;20238;-74
2021/09/05 09:00:20;;;;;;;7.60;6.90;;;18.50;99.90;;;;;;5000606;28;20206;-80
2021/09/05 09:02:54;;;;;;;7.60;7.00;;;18.60;99.90;;;;;;5015969;28;20168;-83
2021/09/05 09:05:34;;;;;;;8.60;7.33;;;18.70;99.90;;;;;;5018620;28;20244;-83
2021/09/05 09:08:03;;;;;;;7.60;6.90;;;18.80;99.90;;;;;;5015453;28;20250;-81
2021/09/05 09:10:29;;;;;;;8.30;7.50;;;18.90;99.90;;;;;;5010371;28;20175;-81
2021/09/05 09:12:55;;;;;;;7.83;7.00;;;19.00;99.90;;;;;;5020949;28;20282;-80
2021/09/05 09:15:32;;;;;;;6.93;6.23;;;19.20;99.90;;;;;;5019005;28;20187;-81
2021/09/05 09:18:00;;;;;;;8.07;7.30;;;19.30;99.90;;;;;;5019890;28;20588;-81
2021/09/05 09:20:34;;;;;;;7.30;6.70;;;19.30;99.90;;;;;;5019853;28;20206;-81
2021/09/05 09:23:08;;;;;;;6.53;6.00;;;19.30;99.90;;;;;;5005532;28;20182;-82
2021/09/05 09:25:34;;;;;;;7.03;6.47;;;19.30;99.90;;;;;;5008938;28;20686;-82
2021/09/05 09:28:01;;;;;;;7.20;6.50;;;19.40;99.90;;;;;;5014546;28;20225;-81
2021/09/05 09:30:34;;;;;;;7.03;6.43;;;19.50;99.90;;;;;;5017395;28;20198;-82
2021/09/05 09:33:00;;;;;;;10.13;6.77;;;19.60;99.90;;;;;;5013402;28;20550;-83
2021/09/05 09:35:26;;;;;;;6.60;6.10;;;19.60;99.90;;;;;;5019637;28;20276;-81
2021/09/05 09:37:52;;;;;;;7.47;6.80;;;19.60;99.90;;;;;;5019512;28;20178;-82
2021/09/05 09:40:26;;;;;;;6.73;6.13;;;19.70;99.90;;;;;;5019519;28;20195;-82
2021/09/05 09:42:52;;;;;;;7.20;6.60;;;19.80;99.90;;;;;;5009926;28;20690;-82
2021/09/05 09:45:18;;;;;;;6.30;5.80;;;19.90;99.90;;;;;;5018022;28;20241;-82
2021/09/05 09:47:49;;;;;;;7.00;6.40;;;20.00;99.90;;;;;;5021241;28;20175;-82
2021/09/05 09:50:16;;;;;;;5.90;5.47;;;20.20;99.90;;;;;;5020205;28;20171;-82
2021/09/05 09:52:43;;;;;;;6.33;5.83;;;20.40;99.90;;;;;;5020584;28;20201;-82
2021/09/05 09:55:10;;;;;;;6.73;6.13;;;20.30;99.90;;;;;;5020523;28;20202;-82
2021/09/05 09:57:36;;;;;;;6.87;6.27;;;20.40;99.90;;;;;;5020863;28;20607;-83
2021/09/05 10:00:04;;;;;;;6.40;5.43;;;20.60;99.90;;;;;;5020899;28;20206;-82
2021/09/05 10:02:31;;;;;;;7.03;6.43;;;20.70;99.90;;;;;;5018901;28;20178;-83
2021/09/05 10:04:59;;;;;;;6.70;6.10;;;20.70;99.90;;;;;;5020330;28;20187;-82
2021/09/05 10:07:29;;;;;;;6.60;6.00;;;20.80;99.90;;;;;;5020474;28;20202;-82
2021/09/05 10:09:55;;;;;;;6.53;5.93;;;20.90;99.90;;;;;;5000914;28;20195;-82
2021/09/05 10:12:21;;;;;;;6.37;5.77;;;21.00;99.90;;;;;;5020716;28;20553;-83
2021/09/05 10:14:51;;;;;;;6.13;5.63;;;21.20;99.90;;;;;;5019721;28;20251;-82
2021/09/05 10:17:17;;;;;;;6.17;5.63;;;21.30;99.90;;;;;;5018666;28;20171;-83
2021/09/05 10:19:44;;;;;;;5.97;5.37;;;21.30;99.90;;;;;;5020053;28;20517;-82
2021/09/05 10:22:10;;;;;;;5.37;4.97;;;21.40;99.90;;;;;;5018516;28;20225;-82
2021/09/05 10:24:48;;;;;;;5.40;4.97;;;21.50;99.90;;;;;;5044002;23;20219;-83
2021/09/05 10:27:15;;;;;;;5.67;5.17;;;21.50;99.90;;;;;;5039597;28;20181;-86
2021/09/05 10:30:05;;;;;;;6.03;5.50;;;21.60;99.90;;;;;;5039425;28;20261;-86
2021/09/05 10:33:02;;;;;;;5.60;5.10;;;21.90;99.90;;;;;;5032712;28;20552;-86
2021/09/05 10:35:48;;;;;;;7.00;5.73;;;21.90;99.90;;;;;;5040246;28;20199;-86
2021/09/05 10:38:21;;;;;;;6.57;6.07;;;22.00;99.90;;;;;;5039835;28;20246;-86
2021/09/05 10:40:52;;;;;;;5.73;5.23;;;22.10;99.90;;;;;;5039139;28;20198;-86
2021/09/05 10:43:20;;;;;;;6.13;5.63;;;22.10;99.90;;;;;;5040415;28;20258;-86
2021/09/05 10:45:52;;;;;;;5.97;5.37;;;22.30;99.90;;;;;;5041336;28;20221;-86
2021/09/05 10:48:35;;;;;;;6.50;6.00;;;22.40;99.90;;;;;;5043831;28;20201;-86
2021/09/05 10:51:12;;;;;;;6.67;5.90;;;22.30;99.90;;;;;;5044651;28;20173;-86
2021/09/05 10:53:48;;;;;;;5.97;5.47;;;22.40;99.90;;;;;;5044604;28;20178;-86
2021/09/05 10:56:22;;;;;;;6.73;6.13;;;22.40;99.90;;;;;;5043116;28;20655;-86
2021/09/05 10:58:58;;;;;;;6.43;5.83;;;22.40;99.90;;;;;;5043101;28;20190;-86
2021/09/05 11:01:30;;;;;;;6.30;5.70;;;22.50;99.90;;;;;;5043389;28;20198;-86
2021/09/05 11:04:10;;;;;;;5.83;5.33;;;22.90;99.90;;;;;;5043847;28;20171;-86
2021/09/05 11:06:43;;;;;;;5.13;4.73;;;22.90;99.90;;;;;;5037113;28;20222;-86
2021/09/05 11:09:17;;;;;;;6.40;5.90;;;23.10;99.90;;;;;;5024240;28;20649;-86
2021/09/05 11:12:10;;;;;;;5.83;5.43;;;23.30;99.90;;;;;;5016965;28;20177;-86
2021/09/05 11:14:48;;;;;;;5.50;5.10;;;23.40;99.90;;;;;;5044484;28;20260;-86
2021/09/05 11:17:23;;;;;;;5.43;5.03;;;23.60;99.90;;;;;;5045832;28;20167;-84
2021/09/05 11:20:19;;;;;;;5.50;5.00;;;23.60;99.90;;;;;;5032578;28;20265;-84
2021/09/05 11:22:46;;;;;;;5.53;5.03;;;23.80;99.90;;;;;;5036366;28;20175;-84
2021/09/05 11:25:23;;;;;;;6.03;5.53;;;23.80;99.90;;;;;;5037641;28;20207;-84
2021/09/05 11:28:09;;;;;;;5.43;4.17;;;23.90;99.90;;;;;;5036353;28;20170;-85
2021/09/05 11:30:42;;;;;;;5.13;4.60;;;23.80;99.90;;;;;;5041494;28;20187;-85
2021/09/05 11:33:12;;;;;;;5.37;4.87;;;23.80;99.90;;;;;;5039456;28;20170;-85
2021/09/05 11:35:45;;;;;;;5.17;4.77;;;23.90;99.90;;;;;;5044670;28;20194;-85
2021/09/05 11:38:13;;;;;;;4.73;4.33;;;23.80;99.90;;;;;;5044569;28;20542;-84
2021/09/05 11:40:53;;;;;;;5.40;5.00;;;23.80;99.90;;;;;;5042861;28;20731;-85
2021/09/05 11:43:55;;;;;;;5.63;5.00;;;23.80;99.90;;;;;;5042980;28;20181;-85
2021/09/05 11:46:20;;;;;;;5.00;4.60;;;23.80;99.90;;;;;;5002450;28;20179;-85
2021/09/05 11:48:57;;;;;;;8.20;5.60;;;23.90;99.90;;;;;;5029758;28;20174;-85
2021/09/05 11:51:23;;;;;;;4.87;4.47;;;24.00;99.90;;;;;;5042196;28;20181;-85
2021/09/05 11:53:59;;;;;;;4.40;4.00;;;24.00;99.90;;;;;;5043545;28;20182;-85
2021/09/05 11:56:29;;;;;;;4.57;3.80;;;24.00;99.90;;;;;;5044042;28;20175;-85
2021/09/05 11:58:55;;;;;;;5.10;4.60;;;24.10;99.90;;;;;;5042085;28;20209;-85
2021/09/05 12:01:20;;;;;;;4.40;4.10;;;24.40;99.90;;;;;;5036318;28;20191;-85
2021/09/05 12:03:46;;;;;;;4.37;3.97;;;24.60;99.90;;;;;;5035486;28;20174;-84
2021/09/05 12:06:12;;;;;;;4.80;4.27;;;24.60;99.90;;;;;;5043857;28;20173;-85
2021/09/05 12:08:39;;;;;;;4.90;4.50;;;24.70;99.90;;;;;;5043036;28;20167;-84
2021/09/05 12:11:08;;;;;;;4.50;4.10;;;24.80;99.90;;;;;;5043501;28;20177;-84
2021/09/05 12:14:06;;;;;;;4.83;4.43;;;24.90;99.90;;;;;;5043686;28;20719;-84
2021/09/05 12:16:31;;;;;;;4.97;4.57;;;24.80;99.90;;;;;;5020720;28;20187;-84
2021/09/05 12:19:08;;;;;;;4.80;4.40;;;24.70;99.90;;;;;;5043904;28;20189;-84
2021/09/05 12:21:38;;;;;;;4.77;4.37;;;24.60;99.90;;;;;;5042825;28;20190;-84
2021/09/05 12:24:13;;;;;;;5.17;4.40;;;24.60;99.90;;;;;;5044627;28;20609;-84
2021/09/05 12:26:39;;;;;;;4.37;4.07;;;24.70;99.90;;;;;;5044628;28;20271;-84
2021/09/05 12:29:06;;;;;;;5.07;4.50;;;24.70;99.90;;;;;;5044345;28;20637;-85
2021/09/05 12:31:39;;;;;;;5.37;4.30;;;24.60;99.90;;;;;;5035174;28;20714;-84
2021/09/05 12:34:04;;;;;;;5.17;4.77;;;24.70;99.90;;;;;;5044396;28;20199;-84
2021/09/05 12:36:30;;;;;;;4.80;4.37;;;24.80;99.90;;;;;;5044127;28;20184;-84
2021/09/05 12:38:57;;;;;;;5.33;4.93;;;24.80;99.90;;;;;;5043347;28;20174;-84
2021/09/05 12:41:25;;;;;;;5.50;4.50;;;25.00;99.90;;;;;;5042106;28;20205;-84
2021/09/05 12:43:55;;;;;;;5.17;4.77;;;25.00;99.90;;;;;;5036851;28;20182;-84
2021/09/05 12:46:23;;;;;;;5.07;4.67;;;24.80;99.90;;;;;;5022363;28;20194;-84
2021/09/05 12:48:51;;;;;;;5.17;4.77;;;25.10;99.90;;;;;;5035252;28;20602;-84
2021/09/05 12:51:22;;;;;;;5.60;5.00;;;25.20;99.90;;;;;;5042242;28;20171;-84